Time,TemperatureF,DewpointF,PressureIn,WindDirection,WindDirectionDegrees,WindSpeedMPH,WindSpeedGustMPH,Humidity,HourlyPrecipIn,Conditions,Clouds,dailyrainin,SoftwareType,DateUTC
2013-03-20 00:01:00,69.0,63.0,29.95,NE,54,1.0,5.0,80,0.00,,,0.00,,2013-03-20 04:01:00,
2013-03-20 00:03:00,70.0,62.0,29.93,NE,55,2.0,5.0,76,0.00,,,0.00,,2013-03-20 04:03:00,
2013-03-20 00:12:00,70.0,62.0,29.93,NE,55,2.0,5.0,76,0.00,,,0.00,,2013-03-20 04:12:00,
2013-03-20 00:23:00,69.0,63.0,29.95,NE,54,1.0,5.0,80,0.00,,,0.00,,2013-03-20 04:23:00,
2013-03-20 00:32:00,69.0,63.0,29.95,NE,54,1.0,5.0,80,0.00,,,0.00,,2013-03-20 04:32:00,
2013-03-20 00:43:00,69.0,63.0,29.95,NE,54,1.0,5.0,80,0.00,,,0.00,,2013-03-20 04:43:00,
2013-03-20 00:53:00,69.0,63.0,29.95,NE,54,1.0,5.0,80,0.00,,,0.00,,2013-03-20 04:53:00,
2013-03-20 08:22:00,66.0,59.0,29.91,East,95,0.0,0.0,78,0.00,,,0.00,,2013-03-20 12:22:00,
2013-03-20 08:33:00,66.0,59.0,29.91,East,95,0.0,0.0,78,0.00,,,0.00,,2013-03-20 12:33:00,
2013-03-20 08:43:00,66.0,59.0,29.91,East,95,0.0,0.0,78,0.00,,,0.00,,2013-03-20 12:43:00,
2013-03-20 08:52:00,66.0,59.0,29.91,ENE,59,0.0,6.0,78,0.00,,,0.00,,2013-03-20 12:52:00,
2013-03-20 09:03:00,66.0,59.0,29.91,ENE,59,0.0,6.0,78,0.00,,,0.00,,2013-03-20 13:03:00,
2013-03-20 09:12:00,66.0,59.0,29.91,ENE,59,0.0,6.0,78,0.00,,,0.00,,2013-03-20 13:12:00,
2013-03-20 09:22:00,66.0,60.0,29.90,NNE,25,1.0,3.0,82,0.00,,,0.00,,2013-03-20 13:22:00,
2013-03-20 09:32:00,66.0,60.0,29.90,NNE,25,1.0,3.0,82,0.00,,,0.00,,2013-03-20 13:32:00,
2013-03-20 09:43:00,66.0,60.0,29.90,NNE,25,1.0,3.0,82,0.00,,,0.00,,2013-03-20 13:43:00,
2013-03-20 09:53:00,64.0,62.0,29.93,SSW,209,0.0,3.0,92,0.00,,,0.00,,2013-03-20 13:53:00,
2013-03-20 10:03:00,64.0,62.0,29.93,SSW,209,0.0,3.0,92,0.00,,,0.00,,2013-03-20 14:03:00,
2013-03-20 10:12:00,64.0,62.0,29.93,SSW,209,0.0,3.0,92,0.00,,,0.00,,2013-03-20 14:12:00,
2013-03-20 10:23:00,64.0,63.0,29.93,North,3,0.0,2.0,95,0.00,,,0.00,,2013-03-20 14:23:00,
2013-03-20 10:34:00,64.0,63.0,29.93,North,3,0.0,2.0,95,0.00,,,0.00,,2013-03-20 14:34:00,
2013-03-20 10:43:00,64.0,63.0,29.93,North,3,0.0,2.0,95,0.00,,,0.00,,2013-03-20 14:43:00,
2013-03-20 10:53:00,66.0,65.0,29.93,ENE,71,0.0,3.0,96,0.00,,,0.00,,2013-03-20 14:53:00,
2013-03-20 11:02:00,66.0,65.0,29.93,ENE,71,0.0,3.0,96,0.00,,,0.00,,2013-03-20 15:02:00,
2013-03-20 11:13:00,67.0,66.0,29.92,ENE,58,1.0,3.0,95,0.00,,,0.00,,2013-03-20 15:13:00,
2013-03-20 11:22:00,67.0,66.0,29.92,ENE,58,1.0,3.0,95,0.00,,,0.00,,2013-03-20 15:22:00,
2013-03-20 11:33:00,67.0,66.0,29.92,ENE,58,1.0,3.0,95,0.00,,,0.00,,2013-03-20 15:33:00,
2013-03-20 11:43:00,67.0,66.0,29.92,ENE,58,1.0,3.0,95,0.00,,,0.00,,2013-03-20 15:43:00,
2013-03-20 11:53:00,68.0,66.0,29.93,East,85,1.0,3.0,92,0.00,,,0.00,,2013-03-20 15:53:00,
2013-03-20 12:01:00,70.0,66.0,29.93,East,86,0.0,2.0,88,0.00,,,0.00,,2013-03-20 16:01:00,
2013-03-20 12:03:00,68.0,66.0,29.93,East,85,1.0,3.0,92,0.00,,,0.00,,2013-03-20 16:03:00,
2013-03-20 12:13:00,68.0,66.0,29.93,East,85,1.0,3.0,92,0.00,,,0.00,,2013-03-20 16:13:00,
2013-03-20 12:23:00,70.0,66.0,29.93,East,86,0.0,2.0,88,0.00,,,0.00,,2013-03-20 16:23:00,
2013-03-20 12:33:00,70.0,66.0,29.93,East,86,0.0,2.0,88,0.00,,,0.00,,2013-03-20 16:33:00,
2013-03-20 12:43:00,70.0,66.0,29.93,East,86,0.0,2.0,88,0.00,,,0.00,,2013-03-20 16:43:00,
2013-03-20 12:53:00,70.0,66.0,29.93,East,86,0.0,2.0,88,0.00,,,0.00,,2013-03-20 16:53:00,
2013-03-20 18:23:00,74.0,64.0,29.77,WNW,296,0.0,3.0,70,0.00,,,0.00,,2013-03-20 22:23:00,
2013-03-20 18:33:00,74.0,64.0,29.77,WNW,296,0.0,3.0,70,0.00,,,0.00,,2013-03-20 22:33:00,
2013-03-20 18:43:00,74.0,64.0,29.77,WNW,296,0.0,3.0,70,0.00,,,0.00,,2013-03-20 22:43:00,
2013-03-20 18:53:00,74.0,64.0,29.77,NW,320,0.0,4.0,72,0.00,,,0.00,,2013-03-20 22:53:00,
2013-03-20 19:02:00,74.0,64.0,29.77,NW,320,0.0,4.0,72,0.00,,,0.00,,2013-03-20 23:02:00,
2013-03-20 19:12:00,74.0,64.0,29.77,NW,320,0.0,4.0,72,0.00,,,0.00,,2013-03-20 23:12:00,
2013-03-20 19:23:00,72.0,63.0,29.78,North,360,0.0,4.0,74,0.00,,,0.00,,2013-03-20 23:23:00,
2013-03-20 19:32:00,72.0,63.0,29.78,North,360,0.0,4.0,74,0.00,,,0.00,,2013-03-20 23:32:00,
2013-03-20 19:43:00,72.0,63.0,29.78,North,360,0.0,4.0,74,0.00,,,0.00,,2013-03-20 23:43:00,
2013-03-20 19:53:00,70.0,62.0,29.80,NW,305,1.0,6.0,77,0.00,,,0.00,,2013-03-20 23:53:00,
2013-03-20 20:02:00,70.0,62.0,29.80,NW,305,1.0,6.0,77,0.00,,,0.00,,2013-03-21 00:02:00,
2013-03-20 20:13:00,70.0,62.0,29.80,NW,305,1.0,6.0,77,0.00,,,0.00,,2013-03-21 00:13:00,
2013-03-20 20:23:00,69.0,62.0,29.83,NNW,329,4.0,6.0,79,0.00,,,0.00,,2013-03-21 00:23:00,
2013-03-20 20:31:00,66.0,62.0,29.85,NNW,343,4.0,12.0,87,0.00,,,0.00,,2013-03-21 00:31:00,
2013-03-20 20:33:00,69.0,62.0,29.83,NNW,329,4.0,6.0,79,0.00,,,0.00,,2013-03-21 00:33:00,
2013-03-20 20:42:00,69.0,62.0,29.83,NNW,329,4.0,6.0,79,0.00,,,0.00,,2013-03-21 00:42:00,
2013-03-20 20:53:00,66.0,62.0,29.85,NNW,343,4.0,12.0,87,0.00,,,0.00,,2013-03-21 00:53:00,
2013-03-20 21:02:00,66.0,62.0,29.85,NNW,343,4.0,12.0,87,0.00,,,0.00,,2013-03-21 01:02:00,
2013-03-20 21:12:00,66.0,62.0,29.85,NNW,343,4.0,12.0,87,0.00,,,0.00,,2013-03-21 01:12:00,
2013-03-20 21:22:00,66.0,62.0,29.85,NNW,343,4.0,12.0,87,0.00,,,0.00,,2013-03-21 01:22:00,
2013-03-20 23:53:00,60.0,58.0,29.84,WNW,301,0.0,6.0,93,0.00,,,0.00,,2013-03-21 03:53:00,